sensor_id;sensor_type;location;lat;lon;timestamp;noise_LAeq;noise_LA_min;noise_LA_max;noise_LA01;noise_LA95
58197;Laerm;43999;51.660;5.616;2023-01-05T00:01:56;55.09;41.96;71.69;;
58197;Laerm;43999;51.660;5.616;2023-01-05T00:04:24;53.79;40.33;76.56;;
58197;Laerm;43999;51.660;5.616;2023-01-05T00:06:51;50.25;39.92;75.50;;
58197;Laerm;43999;51.660;5.616;2023-01-05T00:09:20;56.91;40.13;81.56;;
58197;Laerm;43999;51.660;5.616;2023-01-05T00:11:47;58.36;41.30;79.74;;
58197;Laerm;43999;51.660;5.616;2023-01-05T00:14:33;55.94;39.81;79.20;;
58197;Laerm;43999;51.660;5.616;2023-01-05T00:17:23;56.00;38.95;82.33;;
58197;Laerm;43999;51.660;5.616;2023-01-05T00:20:19;56.99;39.70;78.68;;
58197;Laerm;43999;51.660;5.616;2023-01-05T00:23:07;56.45;39.34;79.20;;
58197;Laerm;43999;51.660;5.616;2023-01-05T00:25:40;61.25;40.33;81.77;;
58197;Laerm;43999;51.660;5.616;2023-01-05T00:28:07;65.36;39.70;89.72;;
58197;Laerm;43999;51.660;5.616;2023-01-05T00:30:42;55.26;39.34;81.81;;
58197;Laerm;43999;51.660;5.616;2023-01-05T00:33:15;50.95;39.08;75.68;;
58197;Laerm;43999;51.660;5.616;2023-01-05T00:35:43;58.78;39.58;78.88;;
58197;Laerm;43999;51.660;5.616;2023-01-05T00:38:11;56.09;39.70;83.91;;
58197;Laerm;43999;51.660;5.616;2023-01-05T00:40:39;51.23;39.34;77.65;;
58197;Laerm;43999;51.660;5.616;2023-01-05T00:43:06;50.52;39.21;71.39;;
58197;Laerm;43999;51.660;5.616;2023-01-05T00:45:33;61.85;38.95;79.69;;
58197;Laerm;43999;51.660;5.616;2023-01-05T00:48:01;52.29;37.52;79.02;;
58197;Laerm;43999;51.660;5.616;2023-01-05T00:50:28;55.13;39.08;67.04;;
58197;Laerm;43999;51.660;5.616;2023-01-05T00:52:55;54.35;38.05;76.17;;
58197;Laerm;43999;51.660;5.616;2023-01-05T00:55:22;54.62;39.21;76.73;;
58197;Laerm;43999;51.660;5.616;2023-01-05T00:57:50;52.40;39.21;65.97;;
58197;Laerm;43999;51.660;5.616;2023-01-05T01:00:19;55.48;39.21;80.67;;
58197;Laerm;43999;51.660;5.616;2023-01-05T01:02:49;51.35;39.34;73.80;;
58197;Laerm;43999;51.660;5.616;2023-01-05T01:05:18;55.31;38.37;77.76;;
58197;Laerm;43999;51.660;5.616;2023-01-05T01:07:46;52.85;39.21;72.00;;
58197;Laerm;43999;51.660;5.616;2023-01-05T01:10:14;46.72;38.67;70.46;;
58197;Laerm;43999;51.660;5.616;2023-01-05T01:12:42;54.83;39.58;70.41;;
58197;Laerm;43999;51.660;5.616;2023-01-05T01:15:10;49.74;37.32;74.25;;
58197;Laerm;43999;51.660;5.616;2023-01-05T01:17:37;50.79;38.67;74.78;;
58197;Laerm;43999;51.660;5.616;2023-01-05T01:20:05;54.69;38.95;78.49;;
58197;Laerm;43999;51.660;5.616;2023-01-05T01:22:33;61.16;38.67;80.93;;
58197;Laerm;43999;51.660;5.616;2023-01-05T01:25:00;52.82;38.37;76.22;;
58197;Laerm;43999;51.660;5.616;2023-01-05T01:27:30;54.45;38.67;87.25;;
58197;Laerm;43999;51.660;5.616;2023-01-05T01:30:00;48.36;35.94;69.31;;
58197;Laerm;43999;51.660;5.616;2023-01-05T01:32:27;55.75;39.21;78.41;;
58197;Laerm;43999;51.660;5.616;2023-01-05T01:34:54;60.15;39.70;82.78;;
58197;Laerm;43999;51.660;5.616;2023-01-05T01:37:22;48.41;38.67;71.17;;
58197;Laerm;43999;51.660;5.616;2023-01-05T01:39:52;48.86;38.05;65.80;;
58197;Laerm;43999;51.660;5.616;2023-01-05T01:42:21;53.19;38.81;77.84;;
58197;Laerm;43999;51.660;5.616;2023-01-05T01:44:58;48.21;38.37;74.05;;
58197;Laerm;43999;51.660;5.616;2023-01-05T01:50:30;57.13;39.21;79.59;;
58197;Laerm;43999;51.660;5.616;2023-01-05T01:53:19;54.23;38.81;77.74;;
58197;Laerm;43999;51.660;5.616;2023-01-05T01:55:51;56.31;39.34;78.37;;
58197;Laerm;43999;51.660;5.616;2023-01-05T01:58:25;46.77;38.05;66.99;;
58197;Laerm;43999;51.660;5.616;2023-01-05T02:00:55;56.29;38.21;74.76;;
58197;Laerm;43999;51.660;5.616;2023-01-05T02:03:23;57.66;39.08;75.25;;
58197;Laerm;43999;51.660;5.616;2023-01-05T02:05:54;44.13;38.37;66.01;;
58197;Laerm;43999;51.660;5.616;2023-01-05T02:08:22;55.62;39.08;71.89;;
58197;Laerm;43999;51.660;5.616;2023-01-05T02:18:13;54.53;38.37;79.31;;
58197;Laerm;43999;51.660;5.616;2023-01-05T02:27:46;51.33;38.21;71.96;;
58197;Laerm;43999;51.660;5.616;2023-01-05T02:31:12;46.90;38.32;70.54;;
58197;Laerm;43999;51.660;5.616;2023-01-05T02:37:12;55.56;39.21;81.75;;
58197;Laerm;43999;51.660;5.616;2023-01-05T02:40:17;45.59;38.52;67.51;;
58197;Laerm;43999;51.660;5.616;2023-01-05T02:42:52;47.21;38.21;72.40;;
58197;Laerm;43999;51.660;5.616;2023-01-05T02:45:22;56.47;37.88;80.12;;
58197;Laerm;43999;51.660;5.616;2023-01-05T02:47:55;56.88;39.70;80.85;;
58197;Laerm;43999;51.660;5.616;2023-01-05T02:50:35;46.67;38.81;71.09;;
58197;Laerm;43999;51.660;5.616;2023-01-05T02:56:03;56.54;38.21;82.82;;
58197;Laerm;43999;51.660;5.616;2023-01-05T02:58:56;44.55;38.05;62.46;;
58197;Laerm;43999;51.660;5.616;2023-01-05T03:01:42;48.38;38.81;69.62;;
58197;Laerm;43999;51.660;5.616;2023-01-05T03:07:17;54.87;38.05;75.04;;
58197;Laerm;43999;51.660;5.616;2023-01-05T03:09:48;51.49;39.21;74.06;;
58197;Laerm;43999;51.660;5.616;2023-01-05T03:12:34;53.88;38.95;80.78;;
58197;Laerm;43999;51.660;5.616;2023-01-05T03:15:31;54.87;38.21;80.33;;
58197;Laerm;43999;51.660;5.616;2023-01-05T03:18:06;58.39;39.92;81.79;;
58197;Laerm;43999;51.660;5.616;2023-01-05T03:20:47;53.61;38.21;76.15;;
58197;Laerm;43999;51.660;5.616;2023-01-05T03:23:19;58.91;39.34;80.88;;
58197;Laerm;43999;51.660;5.616;2023-01-05T03:26:09;55.68;39.34;81.24;;
58197;Laerm;43999;51.660;5.616;2023-01-05T03:29:02;64.08;41.38;88.23;;
58197;Laerm;43999;51.660;5.616;2023-01-05T03:32:18;65.69;40.13;94.08;;
58197;Laerm;43999;51.660;5.616;2023-01-05T03:35:38;54.65;38.95;80.33;;
58197;Laerm;43999;51.660;5.616;2023-01-05T03:40:57;54.13;39.46;76.45;;
58197;Laerm;43999;51.660;5.616;2023-01-05T03:43:26;54.78;40.13;79.17;;
58197;Laerm;43999;51.660;5.616;2023-01-05T03:45:56;55.58;39.46;85.73;;
58197;Laerm;43999;51.660;5.616;2023-01-05T03:48:27;59.17;41.22;77.60;;
58197;Laerm;43999;51.660;5.616;2023-01-05T03:50:55;59.17;40.71;82.46;;
58197;Laerm;43999;51.660;5.616;2023-01-05T03:53:24;49.48;38.81;68.79;;
58197;Laerm;43999;51.660;5.616;2023-01-05T03:55:52;55.07;40.13;78.17;;
58197;Laerm;43999;51.660;5.616;2023-01-05T03:58:20;65.36;40.43;88.16;;
58197;Laerm;43999;51.660;5.616;2023-01-05T04:00:49;61.49;40.89;84.07;;
58197;Laerm;43999;51.660;5.616;2023-01-05T04:03:19;58.99;39.78;80.92;;
58197;Laerm;43999;51.660;5.616;2023-01-05T04:05:53;54.75;40.23;84.15;;
58197;Laerm;43999;51.660;5.616;2023-01-05T04:08:22;53.16;40.80;76.01;;
58197;Laerm;43999;51.660;5.616;2023-01-05T04:10:52;54.28;40.80;74.31;;
58197;Laerm;43999;51.660;5.616;2023-01-05T04:13:33;56.38;40.23;74.85;;
58197;Laerm;43999;51.660;5.616;2023-01-05T04:16:22;59.53;40.23;83.55;;
58197;Laerm;43999;51.660;5.616;2023-01-05T04:19:03;53.03;40.43;73.19;;
58197;Laerm;43999;51.660;5.616;2023-01-05T04:21:30;51.18;40.13;72.71;;
58197;Laerm;43999;51.660;5.616;2023-01-05T04:23:58;51.67;39.46;77.61;;
58197;Laerm;43999;51.660;5.616;2023-01-05T04:26:27;56.45;39.21;80.16;;
58197;Laerm;43999;51.660;5.616;2023-01-05T04:28:54;53.33;39.46;72.71;;
58197;Laerm;43999;51.660;5.616;2023-01-05T04:31:24;59.25;43.44;77.84;;
58197;Laerm;43999;51.660;5.616;2023-01-05T04:33:54;62.07;42.47;89.36;;
58197;Laerm;43999;51.660;5.616;2023-01-05T04:36:23;53.73;40.13;76.39;;
58197;Laerm;43999;51.660;5.616;2023-01-05T04:38:54;54.16;40.89;77.03;;
58197;Laerm;43999;51.660;5.616;2023-01-05T04:41:21;55.19;40.98;76.42;;
58197;Laerm;43999;51.660;5.616;2023-01-05T04:43:50;56.04;42.47;74.96;;
58197;Laerm;43999;51.660;5.616;2023-01-05T04:46:19;61.17;42.59;82.59;;
58197;Laerm;43999;51.660;5.616;2023-01-05T04:48:48;59.16;42.22;81.76;;
58197;Laerm;43999;51.660;5.616;2023-01-05T04:51:19;56.49;41.68;76.94;;
58197;Laerm;43999;51.660;5.616;2023-01-05T04:53:46;53.25;40.33;72.65;;
58197;Laerm;43999;51.660;5.616;2023-01-05T04:56:16;60.49;41.06;81.20;;
58197;Laerm;43999;51.660;5.616;2023-01-05T04:58:45;57.96;43.24;80.31;;
58197;Laerm;43999;51.660;5.616;2023-01-05T05:01:12;53.56;41.46;78.70;;
58197;Laerm;43999;51.660;5.616;2023-01-05T05:03:41;59.12;42.71;78.22;;
58197;Laerm;43999;51.660;5.616;2023-01-05T05:06:13;54.65;41.38;78.61;;
58197;Laerm;43999;51.660;5.616;2023-01-05T05:08:40;54.08;42.09;74.38;;
58197;Laerm;43999;51.660;5.616;2023-01-05T05:11:08;54.47;42.53;71.26;;
58197;Laerm;43999;51.660;5.616;2023-01-05T05:13:38;57.99;41.46;75.16;;
58197;Laerm;43999;51.660;5.616;2023-01-05T05:16:07;55.84;43.04;76.03;;
58197;Laerm;43999;51.660;5.616;2023-01-05T05:18:35;53.79;40.89;72.75;;
58197;Laerm;43999;51.660;5.616;2023-01-05T05:21:04;50.15;40.53;74.40;;
58197;Laerm;43999;51.660;5.616;2023-01-05T05:23:34;58.96;42.71;83.65;;
58197;Laerm;43999;51.660;5.616;2023-01-05T05:26:02;53.99;42.09;74.71;;
58197;Laerm;43999;51.660;5.616;2023-01-05T05:28:30;52.15;41.75;72.50;;
58197;Laerm;43999;51.660;5.616;2023-01-05T05:30:57;58.50;42.03;80.83;;
58197;Laerm;43999;51.660;5.616;2023-01-05T05:33:25;61.31;42.09;78.03;;
58197;Laerm;43999;51.660;5.616;2023-01-05T05:35:52;59.66;43.68;78.60;;
58197;Laerm;43999;51.660;5.616;2023-01-05T05:38:19;55.68;43.81;71.36;;
58197;Laerm;43999;51.660;5.616;2023-01-05T05:40:50;55.97;44.03;71.24;;
58197;Laerm;43999;51.660;5.616;2023-01-05T05:43:17;57.91;44.80;72.67;;
58197;Laerm;43999;51.660;5.616;2023-01-05T05:45:44;61.56;44.51;86.44;;
58197;Laerm;43999;51.660;5.616;2023-01-05T05:48:17;59.04;44.54;73.51;;
58197;Laerm;43999;51.660;5.616;2023-01-05T05:50:45;64.39;45.45;82.67;;
58197;Laerm;43999;51.660;5.616;2023-01-05T05:53:12;60.03;45.01;76.00;;
58197;Laerm;43999;51.660;5.616;2023-01-05T05:55:40;62.45;44.03;84.32;;
58197;Laerm;43999;51.660;5.616;2023-01-05T05:58:07;65.36;45.01;89.05;;
58197;Laerm;43999;51.660;5.616;2023-01-05T06:00:35;59.94;45.91;81.53;;
58197;Laerm;43999;51.660;5.616;2023-01-05T06:03:02;57.24;43.34;74.17;;
58197;Laerm;43999;51.660;5.616;2023-01-05T06:05:29;58.34;44.87;82.21;;
58197;Laerm;43999;51.660;5.616;2023-01-05T06:07:57;58.40;43.68;81.92;;
58197;Laerm;43999;51.660;5.616;2023-01-05T06:10:24;61.46;43.34;79.53;;
58197;Laerm;43999;51.660;5.616;2023-01-05T06:12:53;60.26;43.72;81.78;;
58197;Laerm;43999;51.660;5.616;2023-01-05T06:15:22;62.90;45.36;86.87;;
58197;Laerm;43999;51.660;5.616;2023-01-05T06:17:50;62.82;45.04;82.01;;
58197;Laerm;43999;51.660;5.616;2023-01-05T06:20:18;59.37;43.72;71.13;;
58197;Laerm;43999;51.660;5.616;2023-01-05T06:22:45;62.29;46.18;82.47;;
58197;Laerm;43999;51.660;5.616;2023-01-05T06:25:12;57.98;44.76;80.60;;
58197;Laerm;43999;51.660;5.616;2023-01-05T06:27:40;59.12;43.99;71.33;;
58197;Laerm;43999;51.660;5.616;2023-01-05T06:30:08;59.24;44.65;72.87;;
58197;Laerm;43999;51.660;5.616;2023-01-05T06:32:36;64.93;48.05;81.46;;
58197;Laerm;43999;51.660;5.616;2023-01-05T06:35:04;63.81;47.93;78.23;;
58197;Laerm;43999;51.660;5.616;2023-01-05T06:37:31;65.39;48.37;83.47;;
58197;Laerm;43999;51.660;5.616;2023-01-05T06:39:58;61.52;48.00;73.60;;
58197;Laerm;43999;51.660;5.616;2023-01-05T06:42:26;60.69;45.97;78.69;;
58197;Laerm;43999;51.660;5.616;2023-01-05T06:44:53;62.38;45.89;86.75;;
58197;Laerm;43999;51.660;5.616;2023-01-05T06:47:20;63.06;45.63;84.52;;
58197;Laerm;43999;51.660;5.616;2023-01-05T06:49:48;61.33;44.62;80.44;;
58197;Laerm;43999;51.660;5.616;2023-01-05T06:52:15;60.25;45.04;73.14;;
58197;Laerm;43999;51.660;5.616;2023-01-05T06:54:43;59.54;47.42;72.45;;
58197;Laerm;43999;51.660;5.616;2023-01-05T06:57:11;64.93;47.57;77.62;;
58197;Laerm;43999;51.660;5.616;2023-01-05T06:59:38;63.41;49.02;77.53;;
58197;Laerm;43999;51.660;5.616;2023-01-05T07:02:15;62.53;47.28;78.96;;
58197;Laerm;43999;51.660;5.616;2023-01-05T07:04:43;60.97;49.02;77.74;;
58197;Laerm;43999;51.660;5.616;2023-01-05T07:07:16;61.67;46.45;73.16;;
58197;Laerm;43999;51.660;5.616;2023-01-05T07:09:44;63.21;48.25;74.88;;
58197;Laerm;43999;51.660;5.616;2023-01-05T07:12:16;62.74;45.97;84.11;;
58197;Laerm;43999;51.660;5.616;2023-01-05T07:14:43;61.02;48.18;74.15;;
58197;Laerm;43999;51.660;5.616;2023-01-05T07:17:11;60.91;45.14;78.56;;
58197;Laerm;43999;51.660;5.616;2023-01-05T07:19:41;59.37;46.10;76.46;;
58197;Laerm;43999;51.660;5.616;2023-01-05T07:22:08;62.17;49.69;80.62;;
58197;Laerm;43999;51.660;5.616;2023-01-05T07:24:36;60.40;48.25;69.17;;
58197;Laerm;43999;51.660;5.616;2023-01-05T07:27:03;61.44;46.62;77.17;;
58197;Laerm;43999;51.660;5.616;2023-01-05T07:29:36;58.24;47.83;75.94;;
58197;Laerm;43999;51.660;5.616;2023-01-05T07:32:04;62.35;47.79;80.90;;
58197;Laerm;43999;51.660;5.616;2023-01-05T07:34:31;62.01;48.73;74.71;;
58197;Laerm;43999;51.660;5.616;2023-01-05T07:36:58;62.42;48.18;75.30;;
58197;Laerm;43999;51.660;5.616;2023-01-05T07:39:26;61.66;49.10;72.14;;
58197;Laerm;43999;51.660;5.616;2023-01-05T07:41:54;62.37;48.80;75.07;;
58197;Laerm;43999;51.660;5.616;2023-01-05T07:44:24;62.56;46.64;72.81;;
58197;Laerm;43999;51.660;5.616;2023-01-05T07:46:52;61.75;51.30;74.84;;
58197;Laerm;43999;51.660;5.616;2023-01-05T07:49:19;63.87;50.53;86.82;;
58197;Laerm;43999;51.660;5.616;2023-01-05T07:51:47;65.12;48.52;86.21;;
58197;Laerm;43999;51.660;5.616;2023-01-05T07:54:14;62.80;48.29;81.52;;
58197;Laerm;43999;51.660;5.616;2023-01-05T07:56:41;63.18;48.91;83.44;;
58197;Laerm;43999;51.660;5.616;2023-01-05T07:59:08;64.39;51.35;81.61;;
58197;Laerm;43999;51.660;5.616;2023-01-05T08:01:36;64.88;51.97;78.18;;
58197;Laerm;43999;51.660;5.616;2023-01-05T08:04:03;60.92;46.66;73.57;;
58197;Laerm;43999;51.660;5.616;2023-01-05T08:06:31;61.11;47.32;72.50;;
58197;Laerm;43999;51.660;5.616;2023-01-05T08:09:00;64.46;52.92;84.69;;
58197;Laerm;43999;51.660;5.616;2023-01-05T08:11:47;62.70;49.33;77.66;;
58197;Laerm;43999;51.660;5.616;2023-01-05T08:14:14;61.57;46.59;73.52;;
58197;Laerm;43999;51.660;5.616;2023-01-05T08:16:41;63.86;50.43;79.77;;
58197;Laerm;43999;51.660;5.616;2023-01-05T08:19:09;65.61;51.50;80.00;;
58197;Laerm;43999;51.660;5.616;2023-01-05T08:21:37;62.22;51.70;74.58;;
58197;Laerm;43999;51.660;5.616;2023-01-05T08:24:05;65.25;51.13;89.35;;
58197;Laerm;43999;51.660;5.616;2023-01-05T08:26:33;64.62;51.27;89.80;;
58197;Laerm;43999;51.660;5.616;2023-01-05T08:29:00;62.37;48.20;74.25;;
58197;Laerm;43999;51.660;5.616;2023-01-05T08:31:30;62.26;52.47;72.03;;
58197;Laerm;43999;51.660;5.616;2023-01-05T08:34:04;62.59;49.30;77.54;;
58197;Laerm;43999;51.660;5.616;2023-01-05T08:36:31;62.27;48.78;76.56;;
58197;Laerm;43999;51.660;5.616;2023-01-05T08:39:00;60.69;50.04;72.19;;
58197;Laerm;43999;51.660;5.616;2023-01-05T08:41:34;62.80;49.44;80.87;;
58197;Laerm;43999;51.660;5.616;2023-01-05T08:44:09;64.14;49.46;81.57;;
58197;Laerm;43999;51.660;5.616;2023-01-05T08:46:37;61.75;49.58;72.07;;
58197;Laerm;43999;51.660;5.616;2023-01-05T08:49:07;63.32;52.80;73.42;;
58197;Laerm;43999;51.660;5.616;2023-01-05T08:51:36;62.69;49.85;76.85;;
58197;Laerm;43999;51.660;5.616;2023-01-05T08:54:04;64.21;52.70;75.16;;
58197;Laerm;43999;51.660;5.616;2023-01-05T08:56:32;63.85;48.84;75.06;;
58197;Laerm;43999;51.660;5.616;2023-01-05T08:59:05;65.45;53.55;74.75;;
58197;Laerm;43999;51.660;5.616;2023-01-05T09:01:32;62.67;50.98;73.53;;
58197;Laerm;43999;51.660;5.616;2023-01-05T09:03:59;63.24;49.11;74.88;;
58197;Laerm;43999;51.660;5.616;2023-01-05T09:06:27;61.79;48.63;74.16;;
58197;Laerm;43999;51.660;5.616;2023-01-05T09:08:55;62.42;47.10;74.15;;
58197;Laerm;43999;51.660;5.616;2023-01-05T09:11:24;63.62;49.38;79.45;;
58197;Laerm;43999;51.660;5.616;2023-01-05T09:13:56;64.19;49.20;72.11;;
58197;Laerm;43999;51.660;5.616;2023-01-05T09:16:30;62.95;51.90;77.09;;
58197;Laerm;43999;51.660;5.616;2023-01-05T09:19:18;66.08;57.02;73.79;;
58197;Laerm;43999;51.660;5.616;2023-01-05T09:21:45;65.60;56.68;74.65;;
58197;Laerm;43999;51.660;5.616;2023-01-05T09:24:12;63.94;55.62;75.44;;
58197;Laerm;43999;51.660;5.616;2023-01-05T09:26:41;64.18;50.42;87.35;;
58197;Laerm;43999;51.660;5.616;2023-01-05T09:29:11;62.83;53.35;74.13;;
58197;Laerm;43999;51.660;5.616;2023-01-05T09:31:42;64.74;52.38;77.14;;
58197;Laerm;43999;51.660;5.616;2023-01-05T09:34:10;64.60;54.17;77.78;;
58197;Laerm;43999;51.660;5.616;2023-01-05T09:36:37;62.85;51.12;74.63;;
58197;Laerm;43999;51.660;5.616;2023-01-05T09:39:05;64.75;50.74;79.03;;
58197;Laerm;43999;51.660;5.616;2023-01-05T09:41:53;69.85;54.28;84.46;;
58197;Laerm;43999;51.660;5.616;2023-01-05T09:44:36;64.69;54.52;73.95;;
58197;Laerm;43999;51.660;5.616;2023-01-05T09:47:39;63.20;52.05;72.34;;
58197;Laerm;43999;51.660;5.616;2023-01-05T09:50:22;64.04;53.44;72.93;;
58197;Laerm;43999;51.660;5.616;2023-01-05T09:52:56;64.63;53.44;78.96;;
58197;Laerm;43999;51.660;5.616;2023-01-05T09:55:29;64.43;49.87;83.73;;
58197;Laerm;43999;51.660;5.616;2023-01-05T09:58:16;62.42;52.26;74.31;;
58197;Laerm;43999;51.660;5.616;2023-01-05T10:01:10;62.13;50.92;71.69;;
58197;Laerm;43999;51.660;5.616;2023-01-05T10:04:00;63.65;53.93;77.21;;
58197;Laerm;43999;51.660;5.616;2023-01-05T10:06:40;63.61;53.38;71.65;;
58197;Laerm;43999;51.660;5.616;2023-01-05T10:09:20;63.92;51.40;82.46;;
58197;Laerm;43999;51.660;5.616;2023-01-05T10:12:19;65.45;51.44;79.01;;
58197;Laerm;43999;51.660;5.616;2023-01-05T10:15:16;64.71;53.56;87.04;;
58197;Laerm;43999;51.660;5.616;2023-01-05T10:17:45;62.26;52.59;71.04;;
58197;Laerm;43999;51.660;5.616;2023-01-05T10:27:27;62.50;47.14;78.82;;
58197;Laerm;43999;51.660;5.616;2023-01-05T10:33:12;63.29;52.15;72.87;;
58197;Laerm;43999;51.660;5.616;2023-01-05T10:36:46;64.51;49.71;77.92;;
58197;Laerm;43999;51.660;5.616;2023-01-05T10:45:36;62.58;50.45;72.77;;
58197;Laerm;43999;51.660;5.616;2023-01-05T10:48:30;62.71;54.67;76.00;;
58197;Laerm;43999;51.660;5.616;2023-01-05T10:51:01;62.48;50.68;74.34;;
58197;Laerm;43999;51.660;5.616;2023-01-05T10:53:37;63.03;51.61;79.24;;
58197;Laerm;43999;51.660;5.616;2023-01-05T10:56:30;62.03;50.97;74.18;;
58197;Laerm;43999;51.660;5.616;2023-01-05T10:59:11;64.54;54.26;81.02;;
58197;Laerm;43999;51.660;5.616;2023-01-05T11:01:45;63.67;54.65;82.82;;
58197;Laerm;43999;51.660;5.616;2023-01-05T11:04:21;61.62;50.15;70.88;;
58197;Laerm;43999;51.660;5.616;2023-01-05T11:07:05;62.56;51.54;79.02;;
58197;Laerm;43999;51.660;5.616;2023-01-05T11:09:39;62.07;50.62;74.75;;
58197;Laerm;43999;51.660;5.616;2023-01-05T11:12:23;64.13;50.03;92.18;;
58197;Laerm;43999;51.660;5.616;2023-01-05T11:14:56;62.39;50.19;78.55;;
58197;Laerm;43999;51.660;5.616;2023-01-05T11:17:36;64.31;53.46;80.88;;
58197;Laerm;43999;51.660;5.616;2023-01-05T11:20:14;62.68;50.23;78.32;;
58197;Laerm;43999;51.660;5.616;2023-01-05T11:22:41;64.02;48.49;94.44;;
58197;Laerm;43999;51.660;5.616;2023-01-05T11:25:31;62.38;49.14;77.26;;
58197;Laerm;43999;51.660;5.616;2023-01-05T11:28:12;61.10;51.68;70.01;;
58197;Laerm;43999;51.660;5.616;2023-01-05T11:31:03;62.49;50.77;72.31;;
58197;Laerm;43999;51.660;5.616;2023-01-05T11:33:35;61.96;51.87;71.46;;
58197;Laerm;43999;51.660;5.616;2023-01-05T11:36:06;64.31;51.93;74.16;;
58197;Laerm;43999;51.660;5.616;2023-01-05T11:38:34;64.28;51.85;74.14;;
58197;Laerm;43999;51.660;5.616;2023-01-05T11:41:01;64.27;51.95;74.49;;
58197;Laerm;43999;51.660;5.616;2023-01-05T11:43:31;64.54;54.97;75.38;;
58197;Laerm;43999;51.660;5.616;2023-01-05T11:46:03;62.84;47.76;73.57;;
58197;Laerm;43999;51.660;5.616;2023-01-05T11:48:34;63.23;53.63;72.72;;
58197;Laerm;43999;51.660;5.616;2023-01-05T11:51:01;62.07;51.64;75.14;;
58197;Laerm;43999;51.660;5.616;2023-01-05T11:56:20;63.87;51.16;76.60;;
58197;Laerm;43999;51.660;5.616;2023-01-05T11:58:51;64.46;53.41;80.83;;
58197;Laerm;43999;51.660;5.616;2023-01-05T12:07:35;64.06;52.63;77.19;;
58197;Laerm;43999;51.660;5.616;2023-01-05T12:14:10;65.33;52.84;85.93;;
58197;Laerm;43999;51.660;5.616;2023-01-05T12:16:54;64.67;53.34;84.67;;
58197;Laerm;43999;51.660;5.616;2023-01-05T12:26:19;64.66;51.72;77.61;;
58197;Laerm;43999;51.660;5.616;2023-01-05T12:38:39;63.54;52.21;79.42;;
58197;Laerm;43999;51.660;5.616;2023-01-05T12:49:52;64.00;53.14;85.44;;
58197;Laerm;43999;51.660;5.616;2023-01-05T12:52:47;63.69;52.36;76.29;;
58197;Laerm;43999;51.660;5.616;2023-01-05T12:55:31;66.09;55.34;93.40;;
58197;Laerm;43999;51.660;5.616;2023-01-05T13:01:30;65.47;50.56;92.38;;
58197;Laerm;43999;51.660;5.616;2023-01-05T13:07:31;62.98;53.78;80.90;;
58197;Laerm;43999;51.660;5.616;2023-01-05T13:10:17;64.04;54.48;81.67;;
58197;Laerm;43999;51.660;5.616;2023-01-05T13:12:52;63.54;53.61;77.17;;
58197;Laerm;43999;51.660;5.616;2023-01-05T13:15:35;63.36;53.90;78.08;;
58197;Laerm;43999;51.660;5.616;2023-01-05T13:18:17;64.02;54.95;76.25;;
58197;Laerm;43999;51.660;5.616;2023-01-05T13:20:55;62.68;52.48;79.32;;
58197;Laerm;43999;51.660;5.616;2023-01-05T13:26:13;62.79;53.22;80.74;;
58197;Laerm;43999;51.660;5.616;2023-01-05T13:28:42;63.70;49.60;86.36;;
58197;Laerm;43999;51.660;5.616;2023-01-05T13:39:10;64.42;51.75;78.28;;
58197;Laerm;43999;51.660;5.616;2023-01-05T13:52:00;63.72;53.31;77.32;;
58197;Laerm;43999;51.660;5.616;2023-01-05T13:54:54;63.59;54.58;81.21;;
58197;Laerm;43999;51.660;5.616;2023-01-05T13:57:41;62.19;51.23;69.94;;
58197;Laerm;43999;51.660;5.616;2023-01-05T14:00:38;64.12;49.74;72.69;;
58197;Laerm;43999;51.660;5.616;2023-01-05T14:03:40;64.05;57.75;70.37;;
58197;Laerm;43999;51.660;5.616;2023-01-05T14:06:35;63.21;55.58;78.25;;
58197;Laerm;43999;51.660;5.616;2023-01-05T14:15:32;62.89;52.09;76.80;;
58197;Laerm;43999;51.660;5.616;2023-01-05T14:20:49;65.49;54.99;78.31;;
58197;Laerm;43999;51.660;5.616;2023-01-05T14:26:00;67.52;56.97;81.04;;
58197;Laerm;43999;51.660;5.616;2023-01-05T14:33:58;62.32;50.68;75.37;;
58197;Laerm;43999;51.660;5.616;2023-01-05T14:36:46;63.87;57.20;76.63;;
58197;Laerm;43999;51.660;5.616;2023-01-05T14:44:59;67.97;51.34;91.37;;
58197;Laerm;43999;51.660;5.616;2023-01-05T14:47:47;62.24;54.04;74.02;;
58197;Laerm;43999;51.660;5.616;2023-01-05T14:50:38;63.43;50.19;73.66;;
58197;Laerm;43999;51.660;5.616;2023-01-05T14:59:21;62.41;49.60;72.13;;
58197;Laerm;43999;51.660;5.616;2023-01-05T15:02:15;67.35;54.66;86.39;;
58197;Laerm;43999;51.660;5.616;2023-01-05T15:04:47;64.86;55.91;84.70;;
58197;Laerm;43999;51.660;5.616;2023-01-05T15:18:00;66.84;55.85;82.90;;
58197;Laerm;43999;51.660;5.616;2023-01-05T15:24:17;65.88;58.30;76.66;;
58197;Laerm;43999;51.660;5.616;2023-01-05T15:27:11;64.95;55.70;80.16;;
58197;Laerm;43999;51.660;5.616;2023-01-05T15:30:38;64.14;53.16;74.27;;
58197;Laerm;43999;51.660;5.616;2023-01-05T15:37:01;65.35;56.01;76.35;;
58197;Laerm;43999;51.660;5.616;2023-01-05T15:39:47;65.04;57.43;74.98;;
58197;Laerm;43999;51.660;5.616;2023-01-05T15:42:23;63.94;53.27;73.46;;
58197;Laerm;43999;51.660;5.616;2023-01-05T15:44:55;64.78;55.99;74.53;;
58197;Laerm;43999;51.660;5.616;2023-01-05T15:47:27;64.61;57.32;79.90;;
58197;Laerm;43999;51.660;5.616;2023-01-05T15:50:00;64.87;54.21;79.45;;
58197;Laerm;43999;51.660;5.616;2023-01-05T15:52:38;65.31;56.91;78.75;;
58197;Laerm;43999;51.660;5.616;2023-01-05T15:55:16;64.76;55.67;77.86;;
58197;Laerm;43999;51.660;5.616;2023-01-05T15:58:13;63.85;55.56;75.02;;
58197;Laerm;43999;51.660;5.616;2023-01-05T16:00:41;64.53;56.91;74.98;;
58197;Laerm;43999;51.660;5.616;2023-01-05T16:03:35;65.12;54.57;76.65;;
58197;Laerm;43999;51.660;5.616;2023-01-05T16:08:51;63.85;56.86;73.77;;
58197;Laerm;43999;51.660;5.616;2023-01-05T16:11:37;63.85;55.94;74.24;;
58197;Laerm;43999;51.660;5.616;2023-01-05T16:14:23;65.36;54.87;75.25;;
58197;Laerm;43999;51.660;5.616;2023-01-05T16:17:12;63.83;56.81;76.22;;
58197;Laerm;43999;51.660;5.616;2023-01-05T16:19:51;65.20;56.66;77.97;;
58197;Laerm;43999;51.660;5.616;2023-01-05T16:23:27;65.63;55.33;74.95;;
58197;Laerm;43999;51.660;5.616;2023-01-05T16:25:58;67.07;58.52;74.82;;
58197;Laerm;43999;51.660;5.616;2023-01-05T16:28:26;69.56;61.64;80.74;;
58197;Laerm;43999;51.660;5.616;2023-01-05T16:30:54;66.29;57.26;79.68;;
58197;Laerm;43999;51.660;5.616;2023-01-05T16:33:35;67.37;60.59;76.25;;
58197;Laerm;43999;51.660;5.616;2023-01-05T16:36:18;67.48;58.51;73.72;;
58197;Laerm;43999;51.660;5.616;2023-01-05T16:38:46;66.56;58.16;74.30;;
58197;Laerm;43999;51.660;5.616;2023-01-05T16:41:25;67.40;55.62;76.53;;
58197;Laerm;43999;51.660;5.616;2023-01-05T16:44:00;66.94;51.64;77.38;;
58197;Laerm;43999;51.660;5.616;2023-01-05T16:46:31;67.50;55.04;75.80;;
58197;Laerm;43999;51.660;5.616;2023-01-05T16:51:50;67.94;56.43;80.64;;
58197;Laerm;43999;51.660;5.616;2023-01-05T16:54:28;66.39;59.85;75.79;;
58197;Laerm;43999;51.660;5.616;2023-01-05T16:57:32;65.94;56.12;76.66;;
58197;Laerm;43999;51.660;5.616;2023-01-05T17:02:58;66.90;56.12;77.99;;
58197;Laerm;43999;51.660;5.616;2023-01-05T17:05:31;66.69;57.46;78.50;;
58197;Laerm;43999;51.660;5.616;2023-01-05T17:08:17;66.19;57.63;80.03;;
58197;Laerm;43999;51.660;5.616;2023-01-05T17:10:46;66.16;58.48;80.60;;
58197;Laerm;43999;51.660;5.616;2023-01-05T17:13:22;64.70;56.53;71.60;;